createdAt,value
2019-02-28T00:02:41.570Z,952.1
2019-02-28T00:05:47.642Z,952
2019-02-28T00:08:55.029Z,952
2019-02-28T00:12:00.904Z,952
2019-02-28T00:15:06.784Z,951.9
2019-02-28T00:18:17.304Z,952
2019-02-28T00:21:23.316Z,951.9
2019-02-28T00:24:31.834Z,951.9
2019-02-28T00:27:37.799Z,951.9
2019-02-28T00:30:43.708Z,951.9
2019-02-28T00:33:49.816Z,951.9
2019-02-28T00:36:55.773Z,952
2019-02-28T00:40:01.701Z,951.9
2019-02-28T00:43:11.173Z,951.9
2019-02-28T00:46:17.106Z,951.8
2019-02-28T00:49:25.711Z,951.9
2019-02-28T00:52:36.690Z,951.9
2019-02-28T00:55:45.861Z,951.8
2019-02-28T00:58:52.339Z,951.7
2019-02-28T01:01:58.402Z,951.8
2019-02-28T01:05:06.924Z,951.7
2019-02-28T01:08:12.882Z,951.8
2019-02-28T01:11:23.899Z,951.7
2019-02-28T01:14:32.340Z,951.7
2019-02-28T01:17:42.115Z,951.7
2019-02-28T01:20:51.415Z,951.7
2019-02-28T01:24:00.549Z,951.6
2019-02-28T01:27:07.176Z,951.6
2019-02-28T01:30:13.138Z,951.6
2019-02-28T01:33:25.658Z,951.5
2019-02-28T01:36:31.683Z,951.6
2019-02-28T01:39:37.613Z,951.6
2019-02-28T01:42:43.641Z,951.6
2019-02-28T01:45:49.805Z,951.5
2019-02-28T01:48:56.526Z,951.5
2019-02-28T01:52:02.648Z,951.5
2019-02-28T01:55:14.330Z,951.5
2019-02-28T01:58:20.292Z,951.5
2019-02-28T02:01:31.689Z,951.5
2019-02-28T02:04:37.849Z,951.5
2019-02-28T02:07:49.173Z,951.5
2019-02-28T02:10:57.175Z,951.5
2019-02-28T02:14:03.224Z,951.5
2019-02-28T02:17:15.510Z,951.5
2019-02-28T02:20:26.968Z,951.5
2019-02-28T02:23:32.964Z,951.5
2019-02-28T02:26:38.844Z,951.5
2019-02-28T02:29:50.953Z,951.5
2019-02-28T02:32:57.029Z,951.4
2019-02-28T02:36:03.198Z,951.4
2019-02-28T02:39:15.929Z,951.4
2019-02-28T02:42:23.188Z,951.4
2019-02-28T02:45:29.273Z,951.4
2019-02-28T02:48:43.393Z,951.3
2019-02-28T02:51:51.790Z,951.2
2019-02-28T02:54:57.886Z,951.2
2019-02-28T02:58:03.907Z,951.2
2019-02-28T03:01:10.071Z,951.2
2019-02-28T03:04:24.036Z,951.2
2019-02-28T03:07:29.985Z,951.2
2019-02-28T03:10:36.082Z,951.1
2019-02-28T03:13:45.209Z,951.2
2019-02-28T03:16:51.288Z,951.2
2019-02-28T03:19:57.411Z,951.1
2019-02-28T03:23:04.628Z,951
2019-02-28T03:26:10.583Z,951
2019-02-28T03:29:16.768Z,951.1
2019-02-28T03:32:23.040Z,951
2019-02-28T03:35:45.587Z,951
2019-02-28T03:38:51.528Z,951
2019-02-28T03:41:57.662Z,951.1
2019-02-28T03:45:03.772Z,951
2019-02-28T03:48:09.892Z,951
2019-02-28T03:51:15.944Z,951
2019-02-28T03:54:22.038Z,951
2019-02-28T03:57:33.340Z,951.1
2019-02-28T04:00:39.517Z,951.1
2019-02-28T04:03:45.640Z,951
2019-02-28T04:06:51.751Z,951
2019-02-28T04:09:57.748Z,950.8
2019-02-28T04:13:03.917Z,950.9
2019-02-28T04:16:11.160Z,950.9
2019-02-28T04:19:23.767Z,950.8
2019-02-28T04:22:29.886Z,950.9
2019-02-28T04:25:35.957Z,950.8
2019-02-28T04:28:42.102Z,950.9
2019-02-28T04:31:55.171Z,950.8
2019-02-28T04:35:03.551Z,950.8
2019-02-28T04:38:09.511Z,950.9
2019-02-28T04:41:15.440Z,950.9
2019-02-28T04:44:21.532Z,950.9
2019-02-28T04:47:27.502Z,950.9
2019-02-28T04:50:33.453Z,950.9
2019-02-28T04:53:39.413Z,951
2019-02-28T04:56:47.164Z,950.9
2019-02-28T04:59:55.780Z,950.9
2019-02-28T05:03:01.670Z,950.9
2019-02-28T05:06:07.656Z,950.9
2019-02-28T05:09:16.538Z,950.9
2019-02-28T05:12:22.680Z,950.9
2019-02-28T05:15:28.600Z,950.9
2019-02-28T05:18:42.986Z,950.9
2019-02-28T05:21:55.018Z,951
2019-02-28T05:25:00.966Z,950.9
2019-02-28T05:28:08.778Z,951
2019-02-28T05:31:14.657Z,951
2019-02-28T05:34:20.641Z,951.1
2019-02-28T05:37:26.621Z,951.1
2019-02-28T05:40:32.602Z,951
2019-02-28T05:43:44.561Z,951.1
2019-02-28T05:46:50.558Z,951.1
2019-02-28T05:50:01.716Z,951.2
2019-02-28T05:53:11.049Z,951.2
2019-02-28T05:56:16.920Z,951.3
2019-02-28T05:59:28.128Z,951.4
2019-02-28T06:02:34.040Z,951.4
2019-02-28T06:05:40.345Z,951.4
2019-02-28T06:08:51.834Z,951.4
2019-02-28T06:11:57.872Z,951.4
2019-02-28T06:15:04.959Z,951.4
2019-02-28T06:18:11.056Z,951.3
2019-02-28T06:21:17.078Z,951.4
2019-02-28T06:24:26.622Z,951.4
2019-02-28T06:27:50.643Z,951.4
2019-02-28T06:30:56.586Z,951.4
2019-02-28T06:34:09.938Z,951.3
2019-02-28T06:37:15.959Z,951.3
2019-02-28T06:40:21.928Z,951.4
2019-02-28T06:43:27.964Z,951.3
2019-02-28T06:46:33.877Z,951.3
2019-02-28T06:49:43.318Z,951.3
2019-02-28T06:52:49.386Z,951.4
2019-02-28T06:56:00.796Z,951.2
2019-02-28T06:59:06.887Z,951.3
2019-02-28T07:02:12.889Z,951.3
2019-02-28T07:05:24.236Z,951.2
2019-02-28T07:08:31.668Z,951.2
2019-02-28T07:11:37.560Z,951.2
2019-02-28T07:14:50.192Z,951.1
2019-02-28T07:17:56.068Z,951.1
2019-02-28T07:21:01.990Z,951
2019-02-28T07:24:11.102Z,951.1
2019-02-28T07:27:16.979Z,951
2019-02-28T07:30:30.123Z,951
2019-02-28T07:33:38.102Z,951
2019-02-28T07:36:50.093Z,950.9
2019-02-28T07:39:56.397Z,951
2019-02-28T07:43:02.534Z,951
2019-02-28T07:46:13.748Z,951
2019-02-28T07:49:19.945Z,951
2019-02-28T07:52:34.380Z,951
2019-02-28T07:55:40.583Z,950.9
2019-02-28T07:58:46.860Z,950.9
2019-02-28T08:01:53.853Z,950.9
2019-02-28T08:05:05.870Z,950.9
2019-02-28T08:08:11.862Z,950.9
2019-02-28T08:11:21.502Z,950.8
2019-02-28T08:14:27.524Z,951
2019-02-28T08:17:36.581Z,951
2019-02-28T08:20:48.968Z,951
2019-02-28T08:23:55.006Z,951
2019-02-28T08:27:01.047Z,951.1
2019-02-28T08:30:07.345Z,951.1
2019-02-28T08:33:17.856Z,951.1
2019-02-28T08:36:26.866Z,951.1
2019-02-28T08:39:36.138Z,951
2019-02-28T08:42:46.661Z,951
2019-02-28T08:45:54.837Z,951
2019-02-28T08:49:07.365Z,950.9
2019-02-28T08:52:22.574Z,950.9
2019-02-28T08:55:30.580Z,950.8
2019-02-28T08:58:40.271Z,950.6
2019-02-28T09:01:48.229Z,950.4
2019-02-28T09:04:54.341Z,950.5
2019-02-28T09:08:00.397Z,950.3
2019-02-28T09:11:06.303Z,950.3
2019-02-28T09:14:14.685Z,950.3
2019-02-28T09:17:24.002Z,950.3
2019-02-28T09:20:30.064Z,950.3
2019-02-28T09:23:39.416Z,950.2
2019-02-28T09:26:46.834Z,950.2
2019-02-28T09:29:56.159Z,950.1
2019-02-28T09:33:02.268Z,950.1
2019-02-28T09:36:11.038Z,950.2
2019-02-28T09:39:23.610Z,950.2
2019-02-28T09:42:29.559Z,950.1
2019-02-28T09:45:35.454Z,950.2
2019-02-28T09:48:45.489Z,950.2
2019-02-28T09:51:51.648Z,950.1
2019-02-28T09:55:00.934Z,950.2
2019-02-28T09:58:06.955Z,950.2
2019-02-28T10:01:13.009Z,950.1
2019-02-28T10:04:18.900Z,950
2019-02-28T10:07:27.837Z,949.9
2019-02-28T10:10:33.879Z,950
2019-02-28T10:13:39.749Z,950
2019-02-28T10:16:45.668Z,949.9
2019-02-28T10:19:58.037Z,949.9
2019-02-28T10:23:04.087Z,949.7
2019-02-28T10:26:10.162Z,949.6
2019-02-28T10:29:21.379Z,949.5
2019-02-28T10:32:27.349Z,949.5
2019-02-28T10:35:38.187Z,949.4
2019-02-28T10:38:44.089Z,949.4
2019-02-28T10:41:50.098Z,949.3
2019-02-28T10:44:56.110Z,949.3
2019-02-28T10:48:05.090Z,949.2
2019-02-28T10:51:15.205Z,949.2
2019-02-28T10:54:21.157Z,949.1
2019-02-28T10:57:27.037Z,949.1
2019-02-28T11:00:34.566Z,949
2019-02-28T11:03:40.880Z,948.9
2019-02-28T11:06:48.161Z,948.8
2019-02-28T11:10:02.114Z,948.8
2019-02-28T11:13:08.282Z,948.8
2019-02-28T11:16:14.210Z,948.7
2019-02-28T11:19:25.628Z,948.7
2019-02-28T11:22:31.849Z,948.6
2019-02-28T11:25:44.322Z,948.6
2019-02-28T11:28:50.377Z,948.6
2019-02-28T11:31:56.688Z,948.6
2019-02-28T11:35:04.549Z,948.5
2019-02-28T11:38:10.503Z,948.5
2019-02-28T11:41:22.404Z,948.3
2019-02-28T11:44:28.776Z,948.4
2019-02-28T11:47:34.912Z,948.2
2019-02-28T11:50:45.675Z,948.2
2019-02-28T11:53:51.778Z,948.1
2019-02-28T11:57:02.461Z,948.1
2019-02-28T12:00:13.429Z,947.9
2019-02-28T12:03:19.648Z,947.9
2019-02-28T12:06:27.442Z,947.8
2019-02-28T12:09:33.391Z,947.7
2019-02-28T12:12:45.408Z,947.7
2019-02-28T12:15:51.597Z,947.7
2019-02-28T12:18:57.489Z,947.5
2019-02-28T12:22:03.744Z,947.4
2019-02-28T12:25:18.250Z,947.4
2019-02-28T12:28:24.531Z,947.4
2019-02-28T12:31:37.121Z,947.4
2019-02-28T12:34:43.146Z,947.3
2019-02-28T12:37:55.005Z,947.3
2019-02-28T12:41:01.378Z,947.2
2019-02-28T12:44:07.374Z,947.2
2019-02-28T12:47:18.576Z,947.1
2019-02-28T12:50:24.730Z,947
2019-02-28T12:53:35.453Z,947
2019-02-28T12:56:41.478Z,946.9
2019-02-28T12:59:52.906Z,946.9
2019-02-28T13:02:58.850Z,946.8
2019-02-28T13:06:04.969Z,946.8
2019-02-28T13:09:16.823Z,946.7
2019-02-28T13:12:25.486Z,946.7
2019-02-28T13:15:31.598Z,946.7
2019-02-28T13:18:44.459Z,946.6
2019-02-28T13:21:50.439Z,946.5
2019-02-28T13:24:56.447Z,946.5
2019-02-28T13:28:02.821Z,946.5
2019-02-28T13:31:09.419Z,946.4
2019-02-28T13:34:15.661Z,946.4
2019-02-28T13:37:21.664Z,946.3
2019-02-28T13:40:27.916Z,946.3
2019-02-28T13:43:33.985Z,946.2
2019-02-28T13:46:40.302Z,946.1
2019-02-28T13:49:50.713Z,946.1
2019-02-28T13:53:02.429Z,946.1
2019-02-28T13:56:35.213Z,946
2019-02-28T13:59:44.095Z,946
2019-02-28T14:02:50.105Z,945.9
2019-02-28T14:05:56.137Z,946
2019-02-28T14:09:03.313Z,945.9
2019-02-28T14:12:09.782Z,946
2019-02-28T14:15:25.789Z,945.9
2019-02-28T14:18:32.957Z,945.9
2019-02-28T14:21:39.021Z,945.8
2019-02-28T14:24:47.131Z,945.9
2019-02-28T14:27:56.772Z,945.9
2019-02-28T14:31:06.371Z,945.8
2019-02-28T14:34:12.345Z,945.7
2019-02-28T14:37:21.108Z,945.7
2019-02-28T14:40:27.151Z,945.8
2019-02-28T14:43:33.126Z,945.8
2019-02-28T14:46:39.162Z,945.7
2019-02-28T14:49:45.930Z,945.6
2019-02-28T14:52:51.990Z,945.6
2019-02-28T14:55:57.949Z,945.6
2019-02-28T14:59:09.943Z,945.6
2019-02-28T15:02:15.909Z,945.5
2019-02-28T15:05:22.951Z,945.5
2019-02-28T15:08:29.817Z,945.5
2019-02-28T15:11:35.844Z,945.5
2019-02-28T15:14:44.634Z,945.4
2019-02-28T15:17:50.635Z,945.5
2019-02-28T15:20:56.686Z,945.4
2019-02-28T15:24:05.366Z,945.4
2019-02-28T15:27:14.947Z,945.3
2019-02-28T15:30:20.907Z,945.3
2019-02-28T15:33:31.247Z,945.3
2019-02-28T15:36:37.230Z,945.3
2019-02-28T15:39:45.721Z,945.4
2019-02-28T15:42:55.600Z,945.3
2019-02-28T15:46:01.784Z,945.2
2019-02-28T15:49:14.660Z,945.2
2019-02-28T15:52:20.752Z,945.1
2019-02-28T15:55:26.800Z,945.1
2019-02-28T15:58:32.790Z,945.1
2019-02-28T16:01:45.810Z,945.1
2019-02-28T16:04:51.787Z,945.1
2019-02-28T16:08:12.116Z,945.1
2019-02-28T16:11:18.023Z,945.1
2019-02-28T16:14:24.176Z,945
2019-02-28T16:17:30.051Z,945.1
2019-02-28T16:20:42.140Z,945.1
2019-02-28T16:23:48.101Z,945.1
2019-02-28T16:26:57.993Z,945.1
2019-02-28T16:30:04.133Z,945.2
2019-02-28T16:33:10.038Z,945.2
2019-02-28T16:36:17.177Z,945.2
2019-02-28T16:39:31.622Z,945.1
2019-02-28T16:42:37.493Z,945.1
2019-02-28T16:45:49.708Z,945.1
2019-02-28T16:48:55.651Z,945.1
2019-02-28T16:52:07.039Z,945.1
2019-02-28T16:55:13.092Z,945.1
2019-02-28T16:58:23.301Z,945.1
2019-02-28T17:01:29.237Z,945.1
2019-02-28T17:04:35.172Z,945.1
2019-02-28T17:07:45.186Z,945.2
2019-02-28T17:10:51.184Z,945.2
2019-02-28T17:13:57.247Z,945.2
2019-02-28T17:17:03.126Z,945.2
2019-02-28T17:20:15.011Z,945.2
2019-02-28T17:23:20.975Z,945.1
2019-02-28T17:26:32.411Z,945.1
2019-02-28T17:29:38.425Z,945.1
2019-02-28T17:32:44.435Z,945.2
2019-02-28T17:35:53.407Z,945.1
2019-02-28T17:38:59.287Z,945
2019-02-28T17:42:15.926Z,945.1
2019-02-28T17:45:22.038Z,944.9
2019-02-28T17:48:27.981Z,944.9
2019-02-28T17:51:33.958Z,945
2019-02-28T17:54:40.021Z,944.7
2019-02-28T17:57:48.661Z,944.8
2019-02-28T18:00:58.389Z,944.5
2019-02-28T18:04:04.509Z,944.6
2019-02-28T18:07:12.462Z,944.6
2019-02-28T18:10:24.265Z,944.5
2019-02-28T18:13:32.367Z,944.4
2019-02-28T18:16:38.531Z,944.6
2019-02-28T18:19:44.495Z,944.6
2019-02-28T18:22:56.185Z,944.7
2019-02-28T18:26:02.126Z,944.6
2019-02-28T18:29:08.114Z,944.6
2019-02-28T18:32:14.050Z,944.5
2019-02-28T18:35:20.129Z,944.5
2019-02-28T18:38:26.019Z,944.7
2019-02-28T18:41:32.150Z,944.8
2019-02-28T18:44:47.307Z,944.7
2019-02-28T18:47:53.287Z,944.6
2019-02-28T18:50:59.222Z,944.7
2019-02-28T18:54:05.342Z,944.5
2019-02-28T18:57:11.426Z,944.7
2019-02-28T19:00:17.434Z,944.8
2019-02-28T19:03:23.498Z,944.8
2019-02-28T19:06:32.490Z,944.8
2019-02-28T19:09:38.409Z,944.9
2019-02-28T19:12:44.796Z,944.8
2019-02-28T19:15:50.822Z,945
2019-02-28T19:18:56.778Z,944.9
2019-02-28T19:22:02.846Z,944.7
2019-02-28T19:25:08.838Z,944.7
2019-02-28T19:28:14.867Z,944.8
2019-02-28T19:31:20.771Z,944.8
2019-02-28T19:34:26.687Z,944.7
2019-02-28T19:37:32.672Z,944.7
2019-02-28T19:40:38.809Z,944.6
2019-02-28T19:43:44.870Z,944.6
2019-02-28T19:46:50.750Z,944.6
2019-02-28T19:49:56.790Z,944.5
2019-02-28T19:53:02.849Z,944.5
2019-02-28T19:56:09.017Z,944.4
2019-02-28T19:59:14.920Z,944.4
2019-02-28T20:02:20.937Z,944.4
2019-02-28T20:05:26.957Z,944.4
2019-02-28T20:08:32.956Z,944.5
2019-02-28T20:11:38.864Z,944.5
2019-02-28T20:14:44.889Z,944.5
2019-02-28T20:17:50.842Z,944.4
2019-02-28T20:20:56.879Z,944.4
2019-02-28T20:24:02.839Z,944.6
2019-02-28T20:27:08.923Z,944.6
2019-02-28T20:30:14.799Z,944.7
2019-02-28T20:33:20.697Z,944.4
2019-02-28T20:36:26.813Z,944.5
2019-02-28T20:39:32.916Z,944.4
2019-02-28T20:42:38.863Z,944.4
2019-02-28T20:45:45.133Z,944.5
2019-02-28T20:48:51.102Z,944.5
2019-02-28T20:51:57.016Z,944.6
2019-02-28T20:55:03.113Z,944.6
2019-02-28T20:58:09.140Z,944.6
2019-02-28T21:01:15.343Z,944.6
2019-02-28T21:04:21.277Z,944.7
2019-02-28T21:07:30.099Z,944.5
2019-02-28T21:10:35.983Z,944.6
2019-02-28T21:13:42.039Z,944.6
2019-02-28T21:16:48.002Z,944.5
2019-02-28T21:19:56.803Z,944.6
2019-02-28T21:23:02.864Z,944.5
2019-02-28T21:26:08.823Z,944.5
2019-02-28T21:29:14.784Z,944.5
2019-02-28T21:32:20.798Z,944.6
2019-02-28T21:35:26.836Z,944.6
2019-02-28T21:38:32.693Z,944.6
2019-02-28T21:41:38.959Z,944.6
2019-02-28T21:44:44.814Z,944.7
2019-02-28T21:47:50.849Z,944.7
2019-02-28T21:50:57.067Z,944.7
2019-02-28T21:54:05.074Z,944.8
2019-02-28T21:57:11.214Z,944.8
2019-02-28T22:00:17.198Z,944.7
2019-02-28T22:03:23.135Z,944.8
2019-02-28T22:06:29.196Z,944.8
2019-02-28T22:09:35.262Z,944.7
2019-02-28T22:12:41.359Z,944.7
2019-02-28T22:15:47.496Z,944.8
2019-02-28T22:18:53.529Z,944.8
2019-02-28T22:22:02.721Z,944.7
2019-02-28T22:25:08.680Z,944.7
2019-02-28T22:28:14.817Z,944.7
2019-02-28T22:31:20.905Z,944.6
2019-02-28T22:34:26.966Z,944.4
2019-02-28T22:37:35.933Z,944.4
2019-02-28T22:40:41.965Z,944.4
2019-02-28T22:43:48.125Z,944.5
2019-02-28T22:46:54.183Z,944.4
2019-02-28T22:50:00.301Z,944.4
2019-02-28T22:53:06.410Z,944.5
2019-02-28T22:56:12.481Z,944.5
2019-02-28T22:59:18.537Z,944.6
2019-02-28T23:02:24.459Z,944.6
2019-02-28T23:05:33.433Z,944.7
2019-02-28T23:08:39.546Z,944.6
2019-02-28T23:11:45.528Z,944.6
2019-02-28T23:14:53.923Z,944.6
2019-02-28T23:17:59.988Z,944.6
2019-02-28T23:21:06.049Z,944.7
2019-02-28T23:24:11.951Z,944.6
2019-02-28T23:27:18.289Z,944.6
2019-02-28T23:30:24.896Z,944.5
2019-02-28T23:33:30.958Z,944.4
2019-02-28T23:36:37.122Z,944.4
2019-02-28T23:39:43.185Z,944.4
2019-02-28T23:42:49.259Z,944.4
2019-02-28T23:45:55.243Z,944.4
2019-02-28T23:49:01.222Z,944.4
2019-02-28T23:52:07.185Z,944.4
2019-02-28T23:55:13.162Z,944.4
2019-02-28T23:58:19.254Z,944.5
